sensor_id;sensor_type;location;lat;lon;timestamp;pressure;altitude;pressure_sealevel;temperature;humidity
75051;BME280;63628;47.656;11.310;2023-09-19T00:02:22;94583.75;;;18.71;67.83
75051;BME280;63628;47.656;11.310;2023-09-19T00:04:49;94582.91;;;18.75;67.76
75051;BME280;63628;47.656;11.310;2023-09-19T00:07:16;94586.81;;;18.83;67.18
75051;BME280;63628;47.656;11.310;2023-09-19T00:09:44;94590.06;;;18.80;67.35
75051;BME280;63628;47.656;11.310;2023-09-19T00:12:10;94581.81;;;18.76;67.57
75051;BME280;63628;47.656;11.310;2023-09-19T00:14:40;94588.41;;;18.84;67.05
75051;BME280;63628;47.656;11.310;2023-09-19T00:17:06;94594.13;;;18.77;67.44
75051;BME280;63628;47.656;11.310;2023-09-19T00:19:35;94580.22;;;18.75;67.58
75051;BME280;63628;47.656;11.310;2023-09-19T00:22:02;94579.69;;;18.73;67.63
75051;BME280;63628;47.656;11.310;2023-09-19T00:24:29;94584.19;;;18.78;67.44
75051;BME280;63628;47.656;11.310;2023-09-19T00:26:57;94590.38;;;18.78;67.44
75051;BME280;63628;47.656;11.310;2023-09-19T00:29:25;94589.56;;;18.78;67.48
75051;BME280;63628;47.656;11.310;2023-09-19T00:31:55;94596.81;;;18.77;67.17
75051;BME280;63628;47.656;11.310;2023-09-19T00:34:23;94597.59;;;18.78;64.96
75051;BME280;63628;47.656;11.310;2023-09-19T00:36:52;94606.22;;;16.96;72.83
75051;BME280;63628;47.656;11.310;2023-09-19T00:39:19;94604.41;;;18.22;68.86
75051;BME280;63628;47.656;11.310;2023-09-19T00:41:46;94600.28;;;18.54;67.68
75051;BME280;63628;47.656;11.310;2023-09-19T00:44:14;94598.06;;;18.61;67.56
75051;BME280;63628;47.656;11.310;2023-09-19T00:46:42;94588.41;;;18.60;67.81
75051;BME280;63628;47.656;11.310;2023-09-19T00:49:09;94589.97;;;18.66;67.47
75051;BME280;63628;47.656;11.310;2023-09-19T00:51:36;94594.25;;;18.67;67.37
75051;BME280;63628;47.656;11.310;2023-09-19T00:54:05;94593.53;;;18.61;67.76
75051;BME280;63628;47.656;11.310;2023-09-19T00:56:31;94595.75;;;18.30;67.00
75051;BME280;63628;47.656;11.310;2023-09-19T00:58:58;94596.00;;;18.05;68.35
75051;BME280;63628;47.656;11.310;2023-09-19T01:01:25;94600.13;;;18.45;68.35
75051;BME280;63628;47.656;11.310;2023-09-19T01:03:52;94605.84;;;17.86;70.81
75051;BME280;63628;47.656;11.310;2023-09-19T01:06:20;94603.16;;;18.38;68.28
75051;BME280;63628;47.656;11.310;2023-09-19T01:08:47;94613.97;;;18.52;67.76
75051;BME280;63628;47.656;11.310;2023-09-19T01:11:28;94611.25;;;18.57;65.91
75051;BME280;63628;47.656;11.310;2023-09-19T01:14:11;94609.31;;;18.39;68.51
75051;BME280;63628;47.656;11.310;2023-09-19T01:16:45;94612.44;;;18.46;68.37
75051;BME280;63628;47.656;11.310;2023-09-19T01:22:22;94618.25;;;18.53;67.54
75051;BME280;63628;47.656;11.310;2023-09-19T01:28:19;94632.03;;;18.18;69.17
75051;BME280;63628;47.656;11.310;2023-09-19T01:30:52;94635.78;;;18.46;67.83
75051;BME280;63628;47.656;11.310;2023-09-19T01:33:24;94635.81;;;17.88;69.79
75051;BME280;63628;47.656;11.310;2023-09-19T01:35:52;94637.25;;;18.33;68.46
75051;BME280;63628;47.656;11.310;2023-09-19T01:38:19;94639.88;;;17.80;68.32
75051;BME280;63628;47.656;11.310;2023-09-19T01:40:54;94640.13;;;18.13;69.31
75051;BME280;63628;47.656;11.310;2023-09-19T01:43:28;94641.34;;;16.59;74.09
75051;BME280;63628;47.656;11.310;2023-09-19T01:46:02;94661.34;;;18.04;69.40
75051;BME280;63628;47.656;11.310;2023-09-19T01:48:46;94645.22;;;16.07;76.11
75051;BME280;63628;47.656;11.310;2023-09-19T01:51:20;94649.00;;;17.79;70.26
75051;BME280;63628;47.656;11.310;2023-09-19T01:53:53;94658.03;;;18.17;69.10
75051;BME280;63628;47.656;11.310;2023-09-19T01:56:29;94656.41;;;18.21;68.52
75051;BME280;63628;47.656;11.310;2023-09-19T01:59:06;94648.59;;;18.25;68.69
75051;BME280;63628;47.656;11.310;2023-09-19T02:01:35;94647.88;;;18.14;68.74
75051;BME280;63628;47.656;11.310;2023-09-19T02:04:04;94653.66;;;18.26;68.62
75051;BME280;63628;47.656;11.310;2023-09-19T02:06:31;94647.47;;;18.31;68.63
75051;BME280;63628;47.656;11.310;2023-09-19T02:08:58;94646.84;;;18.39;67.82
75051;BME280;63628;47.656;11.310;2023-09-19T02:11:26;94649.56;;;18.34;68.13
75051;BME280;63628;47.656;11.310;2023-09-19T02:13:52;94659.81;;;18.27;68.73
75051;BME280;63628;47.656;11.310;2023-09-19T02:16:21;94649.56;;;18.34;68.38
75051;BME280;63628;47.656;11.310;2023-09-19T02:18:49;94646.94;;;18.29;68.88
75051;BME280;63628;47.656;11.310;2023-09-19T02:21:16;94641.81;;;18.32;68.31
75051;BME280;63628;47.656;11.310;2023-09-19T02:23:43;94649.84;;;18.32;68.51
75051;BME280;63628;47.656;11.310;2023-09-19T02:26:10;94652.31;;;18.29;68.80
75051;BME280;63628;47.656;11.310;2023-09-19T02:28:38;94644.72;;;18.36;68.09
75051;BME280;63628;47.656;11.310;2023-09-19T02:31:05;94647.75;;;18.29;67.90
75051;BME280;63628;47.656;11.310;2023-09-19T02:33:32;94656.81;;;18.33;68.21
75051;BME280;63628;47.656;11.310;2023-09-19T02:36:01;94648.78;;;18.33;67.92
75051;BME280;63628;47.656;11.310;2023-09-19T02:38:30;94650.69;;;18.28;68.52
75051;BME280;63628;47.656;11.310;2023-09-19T02:40:57;94661.38;;;18.33;68.10
75051;BME280;63628;47.656;11.310;2023-09-19T02:43:23;94655.72;;;18.34;68.04
75051;BME280;63628;47.656;11.310;2023-09-19T02:45:51;94662.22;;;18.28;68.54
75051;BME280;63628;47.656;11.310;2023-09-19T02:48:20;94658.75;;;18.28;68.30
75051;BME280;63628;47.656;11.310;2023-09-19T02:50:49;94659.81;;;18.27;68.47
75051;BME280;63628;47.656;11.310;2023-09-19T02:53:17;94654.25;;;18.23;68.52
75051;BME280;63628;47.656;11.310;2023-09-19T02:55:46;94654.75;;;18.25;68.51
75051;BME280;63628;47.656;11.310;2023-09-19T02:58:13;94656.91;;;18.23;68.70
75051;BME280;63628;47.656;11.310;2023-09-19T03:00:41;94666.19;;;17.29;70.81
75051;BME280;63628;47.656;11.310;2023-09-19T03:03:09;94665.72;;;17.95;69.75
75051;BME280;63628;47.656;11.310;2023-09-19T03:05:36;94669.00;;;18.16;68.83
75051;BME280;63628;47.656;11.310;2023-09-19T03:08:05;94669.00;;;18.21;68.62
75051;BME280;63628;47.656;11.310;2023-09-19T03:10:34;94662.28;;;18.18;68.73
75051;BME280;63628;47.656;11.310;2023-09-19T03:13:04;94673.53;;;18.20;68.75
75051;BME280;63628;47.656;11.310;2023-09-19T03:15:30;94659.03;;;18.26;68.42
75051;BME280;63628;47.656;11.310;2023-09-19T03:17:57;94659.28;;;17.96;69.20
75051;BME280;63628;47.656;11.310;2023-09-19T03:20:26;94658.34;;;18.11;69.09
75051;BME280;63628;47.656;11.310;2023-09-19T03:22:54;94656.69;;;18.15;69.11
75051;BME280;63628;47.656;11.310;2023-09-19T03:25:20;94665.78;;;18.19;68.75
75051;BME280;63628;47.656;11.310;2023-09-19T03:27:50;94670.03;;;18.20;68.55
75051;BME280;63628;47.656;11.310;2023-09-19T03:30:17;94668.44;;;18.19;68.62
75051;BME280;63628;47.656;11.310;2023-09-19T03:32:45;94667.91;;;18.22;68.84
75051;BME280;63628;47.656;11.310;2023-09-19T03:35:12;94668.56;;;18.09;68.94
75051;BME280;63628;47.656;11.310;2023-09-19T03:37:41;94663.66;;;18.16;68.62
75051;BME280;63628;47.656;11.310;2023-09-19T03:40:09;94672.22;;;18.18;68.35
75051;BME280;63628;47.656;11.310;2023-09-19T03:42:38;94664.97;;;18.18;68.12
75051;BME280;63628;47.656;11.310;2023-09-19T03:45:07;94669.00;;;18.16;68.40
75051;BME280;63628;47.656;11.310;2023-09-19T03:47:34;94667.38;;;18.20;67.97
75051;BME280;63628;47.656;11.310;2023-09-19T03:50:01;94677.53;;;18.23;67.92
75051;BME280;63628;47.656;11.310;2023-09-19T03:52:27;94684.00;;;18.22;68.02
75051;BME280;63628;47.656;11.310;2023-09-19T03:54:54;94676.50;;;18.19;68.08
75051;BME280;63628;47.656;11.310;2023-09-19T03:57:21;94681.03;;;18.18;68.16
75051;BME280;63628;47.656;11.310;2023-09-19T03:59:47;94680.50;;;18.21;68.07
75051;BME280;63628;47.656;11.310;2023-09-19T04:02:16;94686.03;;;17.62;70.48
75051;BME280;63628;47.656;11.310;2023-09-19T04:04:49;94693.78;;;18.02;68.82
75051;BME280;63628;47.656;11.310;2023-09-19T04:07:17;94693.41;;;18.14;68.13
75051;BME280;63628;47.656;11.310;2023-09-19T04:09:43;94697.00;;;17.70;69.95
75051;BME280;63628;47.656;11.310;2023-09-19T04:12:10;94690.03;;;18.03;68.70
75051;BME280;63628;47.656;11.310;2023-09-19T04:14:37;94691.63;;;18.04;68.68
75051;BME280;63628;47.656;11.310;2023-09-19T04:17:05;94691.09;;;18.02;69.14
75051;BME280;63628;47.656;11.310;2023-09-19T04:19:37;94700.94;;;18.12;68.47
75051;BME280;63628;47.656;11.310;2023-09-19T04:22:04;94689.97;;;18.09;68.54
75051;BME280;63628;47.656;11.310;2023-09-19T04:24:30;94696.78;;;17.96;68.58
75051;BME280;63628;47.656;11.310;2023-09-19T04:26:58;94696.13;;;18.09;68.23
75051;BME280;63628;47.656;11.310;2023-09-19T04:29:29;94696.94;;;18.10;68.50
75051;BME280;63628;47.656;11.310;2023-09-19T04:31:55;94696.41;;;18.08;68.41
75051;BME280;63628;47.656;11.310;2023-09-19T04:34:23;94704.72;;;18.06;68.56
75051;BME280;63628;47.656;11.310;2023-09-19T04:36:52;94704.78;;;18.01;68.92
75051;BME280;63628;47.656;11.310;2023-09-19T04:39:19;94712.81;;;18.01;68.78
75051;BME280;63628;47.656;11.310;2023-09-19T04:41:47;94706.28;;;18.12;68.28
75051;BME280;63628;47.656;11.310;2023-09-19T04:44:14;94714.38;;;18.07;68.52
75051;BME280;63628;47.656;11.310;2023-09-19T04:46:42;94711.63;;;18.12;68.04
75051;BME280;63628;47.656;11.310;2023-09-19T04:49:09;94717.59;;;18.04;68.49
75051;BME280;63628;47.656;11.310;2023-09-19T04:51:35;94720.00;;;18.05;68.49
75051;BME280;63628;47.656;11.310;2023-09-19T04:54:04;94727.00;;;18.01;68.97
75051;BME280;63628;47.656;11.310;2023-09-19T04:56:31;94725.91;;;18.02;68.70
75051;BME280;63628;47.656;11.310;2023-09-19T04:58:59;94728.03;;;18.05;68.42
75051;BME280;63628;47.656;11.310;2023-09-19T05:01:26;94732.59;;;18.05;68.42
75051;BME280;63628;47.656;11.310;2023-09-19T05:03:53;94729.44;;;17.98;68.37
75051;BME280;63628;47.656;11.310;2023-09-19T05:06:20;94731.03;;;17.99;68.64
75051;BME280;63628;47.656;11.310;2023-09-19T05:08:50;94740.94;;;17.98;68.72
75051;BME280;63628;47.656;11.310;2023-09-19T05:11:19;94736.63;;;18.02;67.93
75051;BME280;63628;47.656;11.310;2023-09-19T05:13:48;94739.91;;;17.94;68.89
75051;BME280;63628;47.656;11.310;2023-09-19T05:16:16;94748.72;;;18.00;68.45
75051;BME280;63628;47.656;11.310;2023-09-19T05:18:43;94753.31;;;17.94;68.07
75051;BME280;63628;47.656;11.310;2023-09-19T05:21:10;94763.22;;;17.94;68.75
75051;BME280;63628;47.656;11.310;2023-09-19T05:23:37;94763.50;;;17.92;68.67
75051;BME280;63628;47.656;11.310;2023-09-19T05:26:04;94767.72;;;17.98;68.41
75051;BME280;63628;47.656;11.310;2023-09-19T05:28:33;94764.56;;;17.91;68.93
75051;BME280;63628;47.656;11.310;2023-09-19T05:31:01;94755.19;;;17.94;68.43
75051;BME280;63628;47.656;11.310;2023-09-19T05:33:29;94759.41;;;18.00;68.04
75051;BME280;63628;47.656;11.310;2023-09-19T05:35:58;94765.63;;;17.95;68.30
75051;BME280;63628;47.656;11.310;2023-09-19T05:38:25;94770.13;;;18.00;68.09
75051;BME280;63628;47.656;11.310;2023-09-19T05:40:53;94767.22;;;17.96;67.89
75051;BME280;63628;47.656;11.310;2023-09-19T05:43:20;94764.56;;;17.91;68.52
75051;BME280;63628;47.656;11.310;2023-09-19T05:45:49;94774.47;;;17.91;68.70
75051;BME280;63628;47.656;11.310;2023-09-19T05:48:19;94775.28;;;17.91;68.58
75051;BME280;63628;47.656;11.310;2023-09-19T05:50:48;94772.38;;;17.88;68.99
75051;BME280;63628;47.656;11.310;2023-09-19T05:53:15;94782.56;;;17.86;69.18
75051;BME280;63628;47.656;11.310;2023-09-19T05:55:42;94770.19;;;17.90;68.67
75051;BME280;63628;47.656;11.310;2023-09-19T05:58:10;94783.31;;;17.91;68.55
75051;BME280;63628;47.656;11.310;2023-09-19T06:00:37;94784.41;;;17.90;68.68
75051;BME280;63628;47.656;11.310;2023-09-19T06:03:07;94781.44;;;17.92;68.47
75051;BME280;63628;47.656;11.310;2023-09-19T06:05:34;94778.56;;;17.83;68.98
75051;BME280;63628;47.656;11.310;2023-09-19T06:08:01;94783.34;;;17.86;68.77
75051;BME280;63628;47.656;11.310;2023-09-19T06:10:30;94773.44;;;17.87;68.41
75051;BME280;63628;47.656;11.310;2023-09-19T06:12:58;94782.53;;;17.91;68.40
75051;BME280;63628;47.656;11.310;2023-09-19T06:15:25;94782.00;;;17.89;70.05
75051;BME280;63628;47.656;11.310;2023-09-19T06:17:54;94790.81;;;17.35;71.40
75051;BME280;63628;47.656;11.310;2023-09-19T06:20:23;94787.44;;;17.73;69.27
75051;BME280;63628;47.656;11.310;2023-09-19T06:22:51;94779.88;;;17.86;68.82
75051;BME280;63628;47.656;11.310;2023-09-19T06:25:19;94780.13;;;17.89;68.40
75051;BME280;63628;47.656;11.310;2023-09-19T06:27:47;94783.09;;;17.83;68.73
75051;BME280;63628;47.656;11.310;2023-09-19T06:30:14;94782.59;;;17.81;68.96
75051;BME280;63628;47.656;11.310;2023-09-19T06:32:41;94773.16;;;17.88;68.05
75051;BME280;63628;47.656;11.310;2023-09-19T06:35:11;94774.94;;;17.49;71.08
75051;BME280;63628;47.656;11.310;2023-09-19T06:37:41;94780.25;;;17.69;69.57
75051;BME280;63628;47.656;11.310;2023-09-19T06:40:08;94785.56;;;17.74;69.44
75051;BME280;63628;47.656;11.310;2023-09-19T06:42:40;94784.16;;;17.87;68.78
75051;BME280;63628;47.656;11.310;2023-09-19T06:45:08;94791.19;;;17.72;70.92
75051;BME280;63628;47.656;11.310;2023-09-19T06:47:38;94788.78;;;17.76;69.11
75051;BME280;63628;47.656;11.310;2023-09-19T06:50:05;94790.59;;;17.86;68.68
75051;BME280;63628;47.656;11.310;2023-09-19T06:52:32;94794.06;;;17.86;68.77
75051;BME280;63628;47.656;11.310;2023-09-19T06:55:01;94794.09;;;17.81;69.31
75051;BME280;63628;47.656;11.310;2023-09-19T06:57:29;94804.53;;;17.83;69.23
75051;BME280;63628;47.656;11.310;2023-09-19T06:59:57;94803.19;;;17.80;69.68
75051;BME280;63628;47.656;11.310;2023-09-19T07:02:24;94811.22;;;17.80;69.75
75051;BME280;63628;47.656;11.310;2023-09-19T07:04:50;94811.72;;;17.87;68.97
75051;BME280;63628;47.656;11.310;2023-09-19T07:07:17;94815.47;;;17.86;69.32
75051;BME280;63628;47.656;11.310;2023-09-19T07:09:44;94821.63;;;17.87;69.54
75051;BME280;63628;47.656;11.310;2023-09-19T07:12:12;94818.81;;;17.58;74.98
75051;BME280;63628;47.656;11.310;2023-09-19T07:14:39;94828.72;;;17.67;70.62
75051;BME280;63628;47.656;11.310;2023-09-19T07:17:06;94831.84;;;17.80;70.13
75051;BME280;63628;47.656;11.310;2023-09-19T07:19:33;94823.75;;;17.90;69.56
75051;BME280;63628;47.656;11.310;2023-09-19T07:22:00;94830.47;;;17.87;69.79
75051;BME280;63628;47.656;11.310;2023-09-19T07:24:29;94841.47;;;17.86;69.86
75051;BME280;63628;47.656;11.310;2023-09-19T07:26:56;94848.09;;;17.93;69.34
75051;BME280;63628;47.656;11.310;2023-09-19T07:29:24;94847.03;;;17.94;69.08
75051;BME280;63628;47.656;11.310;2023-09-19T07:31:53;94852.94;;;17.91;75.33
75051;BME280;63628;47.656;11.310;2023-09-19T07:34:20;94860.69;;;17.18;79.02
75051;BME280;63628;47.656;11.310;2023-09-19T07:36:49;94850.84;;;16.98;79.07
75051;BME280;63628;47.656;11.310;2023-09-19T07:39:16;94862.03;;;17.10;76.54
75051;BME280;63628;47.656;11.310;2023-09-19T07:41:49;94869.94;;;17.56;72.59
75051;BME280;63628;47.656;11.310;2023-09-19T07:44:16;94865.63;;;17.70;70.91
75051;BME280;63628;47.656;11.310;2023-09-19T07:46:45;94870.97;;;17.76;71.23
75051;BME280;63628;47.656;11.310;2023-09-19T07:49:11;94870.59;;;17.92;74.50
75051;BME280;63628;47.656;11.310;2023-09-19T07:51:39;94874.16;;;17.83;73.32
75051;BME280;63628;47.656;11.310;2023-09-19T07:54:06;94877.38;;;17.80;71.65
75051;BME280;63628;47.656;11.310;2023-09-19T07:56:33;94874.47;;;17.61;74.11
75051;BME280;63628;47.656;11.310;2023-09-19T07:59:00;94875.59;;;17.39;74.60
75051;BME280;63628;47.656;11.310;2023-09-19T08:01:27;94872.38;;;17.42;73.65
75051;BME280;63628;47.656;11.310;2023-09-19T08:03:55;94870.75;;;17.57;74.43
75051;BME280;63628;47.656;11.310;2023-09-19T08:06:22;94871.53;;;17.67;73.88
75051;BME280;63628;47.656;11.310;2023-09-19T08:08:51;94872.94;;;18.04;74.98
75051;BME280;63628;47.656;11.310;2023-09-19T08:11:20;94873.44;;;18.11;71.92
75051;BME280;63628;47.656;11.310;2023-09-19T08:13:48;94867.19;;;18.31;71.41
75051;BME280;63628;47.656;11.310;2023-09-19T08:16:15;94874.31;;;19.14;71.47
75051;BME280;63628;47.656;11.310;2023-09-19T08:18:47;94869.63;;;19.48;66.78
75051;BME280;63628;47.656;11.310;2023-09-19T08:21:15;94868.38;;;18.88;66.19
75051;BME280;63628;47.656;11.310;2023-09-19T08:23:43;94875.72;;;18.38;68.95
75051;BME280;63628;47.656;11.310;2023-09-19T08:26:11;94870.63;;;18.36;68.74
75051;BME280;63628;47.656;11.310;2023-09-19T08:28:37;94866.38;;;18.69;66.46
75051;BME280;63628;47.656;11.310;2023-09-19T08:31:08;94869.38;;;18.19;68.21
75051;BME280;63628;47.656;11.310;2023-09-19T08:33:36;94869.66;;;18.17;69.45
75051;BME280;63628;47.656;11.310;2023-09-19T08:36:05;94878.50;;;18.18;67.59
75051;BME280;63628;47.656;11.310;2023-09-19T08:38:35;94877.69;;;18.22;65.50
75051;BME280;63628;47.656;11.310;2023-09-19T08:41:06;94882.75;;;18.29;68.84
75051;BME280;63628;47.656;11.310;2023-09-19T08:43:33;94882.28;;;18.12;70.87
75051;BME280;63628;47.656;11.310;2023-09-19T08:46:09;94879.44;;;19.63;64.99
75051;BME280;63628;47.656;11.310;2023-09-19T08:48:39;94877.84;;;19.62;64.37
75051;BME280;63628;47.656;11.310;2023-09-19T08:51:15;94885.88;;;20.29;59.02
75051;BME280;63628;47.656;11.310;2023-09-19T08:53:51;94883.06;;;19.96;61.65
75051;BME280;63628;47.656;11.310;2023-09-19T08:56:19;94869.41;;;22.29;57.85
75051;BME280;63628;47.656;11.310;2023-09-19T08:58:51;94867.31;;;23.60;53.60
75051;BME280;63628;47.656;11.310;2023-09-19T09:01:21;94864.31;;;22.27;59.67
75051;BME280;63628;47.656;11.310;2023-09-19T09:03:53;94881.81;;;21.89;58.22
75051;BME280;63628;47.656;11.310;2023-09-19T09:06:20;94871.34;;;20.48;61.25
75051;BME280;63628;47.656;11.310;2023-09-19T09:08:50;94876.34;;;20.55;59.74
75051;BME280;63628;47.656;11.310;2023-09-19T09:11:17;94878.06;;;22.39;55.26
75051;BME280;63628;47.656;11.310;2023-09-19T09:13:44;94878.03;;;21.90;56.15
75051;BME280;63628;47.656;11.310;2023-09-19T09:16:11;94878.38;;;20.25;60.20
75051;BME280;63628;47.656;11.310;2023-09-19T09:18:39;94886.44;;;19.06;62.19
75051;BME280;63628;47.656;11.310;2023-09-19T09:21:06;94887.97;;;18.83;68.19
75051;BME280;63628;47.656;11.310;2023-09-19T09:23:33;94884.38;;;18.98;66.65
75051;BME280;63628;47.656;11.310;2023-09-19T09:26:01;94881.78;;;18.88;65.18
75051;BME280;63628;47.656;11.310;2023-09-19T09:28:33;94883.59;;;18.63;66.38
75051;BME280;63628;47.656;11.310;2023-09-19T09:31:01;94884.78;;;18.81;64.49
75051;BME280;63628;47.656;11.310;2023-09-19T09:33:39;94887.06;;;18.59;67.25
75051;BME280;63628;47.656;11.310;2023-09-19T09:36:08;94889.69;;;19.03;65.01
75051;BME280;63628;47.656;11.310;2023-09-19T09:38:43;94887.03;;;19.03;63.95
75051;BME280;63628;47.656;11.310;2023-09-19T09:41:15;94887.81;;;19.04;65.61
75051;BME280;63628;47.656;11.310;2023-09-19T09:43:53;94896.44;;;19.00;65.57
75051;BME280;63628;47.656;11.310;2023-09-19T09:46:25;94890.06;;;18.91;62.67
75051;BME280;63628;47.656;11.310;2023-09-19T09:48:57;94886.59;;;18.91;64.79
75051;BME280;63628;47.656;11.310;2023-09-19T09:51:49;94886.59;;;19.20;63.89
75051;BME280;63628;47.656;11.310;2023-09-19T09:54:27;94874.50;;;19.94;62.13
75051;BME280;63628;47.656;11.310;2023-09-19T09:57:01;94883.06;;;20.15;59.28
75051;BME280;63628;47.656;11.310;2023-09-19T09:59:51;94880.81;;;19.31;62.22
75051;BME280;63628;47.656;11.310;2023-09-19T10:02:26;94884.06;;;19.05;63.27
75051;BME280;63628;47.656;11.310;2023-09-19T10:05:11;94890.97;;;18.77;63.37
75051;BME280;63628;47.656;11.310;2023-09-19T10:07:54;94885.28;;;18.88;63.84
75051;BME280;63628;47.656;11.310;2023-09-19T10:10:30;94893.38;;;19.12;61.43
75051;BME280;63628;47.656;11.310;2023-09-19T10:13:07;94886.41;;;19.11;64.79
75051;BME280;63628;47.656;11.310;2023-09-19T10:15:42;94886.53;;;19.49;62.07
75051;BME280;63628;47.656;11.310;2023-09-19T10:18:14;94890.31;;;19.53;62.73
75051;BME280;63628;47.656;11.310;2023-09-19T10:20:45;94883.25;;;20.61;60.82
75051;BME280;63628;47.656;11.310;2023-09-19T10:23:12;94889.28;;;20.34;61.01
75051;BME280;63628;47.656;11.310;2023-09-19T10:25:41;94879.25;;;20.21;61.48
75051;BME280;63628;47.656;11.310;2023-09-19T10:28:11;94887.91;;;20.37;60.45
75051;BME280;63628;47.656;11.310;2023-09-19T10:30:41;94877.56;;;20.06;66.69
75051;BME280;63628;47.656;11.310;2023-09-19T10:33:12;94883.69;;;22.02;58.19
75051;BME280;63628;47.656;11.310;2023-09-19T10:35:42;94886.69;;;21.32;58.20
75051;BME280;63628;47.656;11.310;2023-09-19T10:38:10;94885.84;;;19.67;66.66
75051;BME280;63628;47.656;11.310;2023-09-19T10:40:38;94889.22;;;19.54;66.83
75051;BME280;63628;47.656;11.310;2023-09-19T10:43:15;94887.97;;;21.34;58.86
75051;BME280;63628;47.656;11.310;2023-09-19T10:45:46;94880.50;;;21.45;57.61
75051;BME280;63628;47.656;11.310;2023-09-19T10:48:16;94884.09;;;22.59;53.62
75051;BME280;63628;47.656;11.310;2023-09-19T10:50:50;94874.25;;;23.92;56.06
75051;BME280;63628;47.656;11.310;2023-09-19T10:53:18;94872.63;;;24.65;50.96
75051;BME280;63628;47.656;11.310;2023-09-19T10:55:53;94877.81;;;21.45;60.36
75051;BME280;63628;47.656;11.310;2023-09-19T10:58:27;94873.22;;;24.19;48.48
75051;BME280;63628;47.656;11.310;2023-09-19T11:01:04;94884.59;;;20.96;58.54
75051;BME280;63628;47.656;11.310;2023-09-19T11:03:39;94881.25;;;19.91;66.95
75051;BME280;63628;47.656;11.310;2023-09-19T11:06:13;94887.47;;;19.87;67.33
75051;BME280;63628;47.656;11.310;2023-09-19T11:08:56;94889.13;;;21.61;59.43
75051;BME280;63628;47.656;11.310;2023-09-19T11:11:40;94879.53;;;21.55;54.28
75051;BME280;63628;47.656;11.310;2023-09-19T11:14:16;94884.72;;;21.92;55.55
75051;BME280;63628;47.656;11.310;2023-09-19T11:20:24;94873.31;;;21.40;56.57
75051;BME280;63628;47.656;11.310;2023-09-19T11:23:26;94884.13;;;20.19;64.88
75051;BME280;63628;47.656;11.310;2023-09-19T11:25:54;94883.97;;;20.29;61.92
75051;BME280;63628;47.656;11.310;2023-09-19T11:28:29;94885.78;;;20.34;63.75
75051;BME280;63628;47.656;11.310;2023-09-19T11:34:41;94881.31;;;19.86;68.19
75051;BME280;63628;47.656;11.310;2023-09-19T11:40:26;94892.19;;;20.19;65.82
75051;BME280;63628;47.656;11.310;2023-09-19T11:42:54;94875.72;;;21.42;54.99
75051;BME280;63628;47.656;11.310;2023-09-19T11:46:06;94880.53;;;21.12;60.09
75051;BME280;63628;47.656;11.310;2023-09-19T11:48:33;94874.25;;;21.03;60.84
75051;BME280;63628;47.656;11.310;2023-09-19T11:51:01;94872.91;;;20.12;66.71
75051;BME280;63628;47.656;11.310;2023-09-19T11:53:42;94877.16;;;20.55;62.52
75051;BME280;63628;47.656;11.310;2023-09-19T11:56:10;94875.00;;;20.15;65.81
75051;BME280;63628;47.656;11.310;2023-09-19T11:58:38;94866.31;;;20.61;63.85
75051;BME280;63628;47.656;11.310;2023-09-19T12:01:06;94865.44;;;20.84;63.93
75051;BME280;63628;47.656;11.310;2023-09-19T12:03:42;94865.09;;;21.18;59.17
75051;BME280;63628;47.656;11.310;2023-09-19T12:06:14;94866.38;;;21.07;61.17
75051;BME280;63628;47.656;11.310;2023-09-19T12:08:42;94872.06;;;20.35;65.73
75051;BME280;63628;47.656;11.310;2023-09-19T12:11:14;94872.47;;;20.80;58.23
75051;BME280;63628;47.656;11.310;2023-09-19T12:13:45;94862.91;;;21.20;59.76
75051;BME280;63628;47.656;11.310;2023-09-19T12:16:15;94860.00;;;20.33;66.43
75051;BME280;63628;47.656;11.310;2023-09-19T12:18:43;94869.72;;;20.10;67.87
75051;BME280;63628;47.656;11.310;2023-09-19T12:21:21;94857.78;;;20.40;56.81
75051;BME280;63628;47.656;11.310;2023-09-19T12:24:03;94858.63;;;20.54;61.07
75051;BME280;63628;47.656;11.310;2023-09-19T12:26:39;94869.78;;;20.80;60.14
75051;BME280;63628;47.656;11.310;2023-09-19T12:29:12;94860.38;;;20.45;64.10
75051;BME280;63628;47.656;11.310;2023-09-19T12:31:49;94861.81;;;20.37;58.73
75051;BME280;63628;47.656;11.310;2023-09-19T12:34:22;94857.09;;;20.48;61.76
75051;BME280;63628;47.656;11.310;2023-09-19T12:37:03;94845.47;;;20.34;65.32
75051;BME280;63628;47.656;11.310;2023-09-19T12:39:32;94859.25;;;20.08;67.93
75051;BME280;63628;47.656;11.310;2023-09-19T12:41:59;94853.09;;;20.26;65.89
75051;BME280;63628;47.656;11.310;2023-09-19T12:44:26;94851.00;;;20.23;59.67
75051;BME280;63628;47.656;11.310;2023-09-19T12:46:54;94847.69;;;20.08;68.20
75051;BME280;63628;47.656;11.310;2023-09-19T12:49:21;94844.47;;;20.48;61.56
75051;BME280;63628;47.656;11.310;2023-09-19T12:51:48;94848.16;;;20.34;64.46
75051;BME280;63628;47.656;11.310;2023-09-19T12:54:16;94838.13;;;20.20;66.79
75051;BME280;63628;47.656;11.310;2023-09-19T12:56:44;94842.69;;;20.39;65.83
75051;BME280;63628;47.656;11.310;2023-09-19T12:59:12;94841.84;;;20.76;61.03
75051;BME280;63628;47.656;11.310;2023-09-19T13:01:43;94850.34;;;20.50;63.90
75051;BME280;63628;47.656;11.310;2023-09-19T13:04:16;94846.19;;;20.20;68.29
75051;BME280;63628;47.656;11.310;2023-09-19T13:06:48;94849.69;;;20.21;67.44
75051;BME280;63628;47.656;11.310;2023-09-19T13:09:16;94854.31;;;20.15;68.44
75051;BME280;63628;47.656;11.310;2023-09-19T13:11:44;94848.94;;;20.15;66.71
75051;BME280;63628;47.656;11.310;2023-09-19T13:14:15;94849.16;;;20.38;66.82
75051;BME280;63628;47.656;11.310;2023-09-19T13:16:56;94839.53;;;20.18;68.23
75051;BME280;63628;47.656;11.310;2023-09-19T13:19:39;94838.41;;;20.38;60.70
75051;BME280;63628;47.656;11.310;2023-09-19T13:22:41;94835.88;;;20.27;68.28